sensor_id;sensor_type;location;lat;lon;timestamp;pressure;altitude;pressure_sealevel;temperature;humidity
21594;BME280;10959;51.328;7.322;2023-05-09T00:02:02;73868.31;;;-147.06;57.45
21594;BME280;10959;51.328;7.322;2023-05-09T00:04:29;73872.41;;;-147.06;57.45
21594;BME280;10959;51.328;7.322;2023-05-09T00:06:56;73864.19;;;-147.06;57.35
21594;BME280;10959;51.328;7.322;2023-05-09T00:09:23;73856.00;;;-147.06;57.35
21594;BME280;10959;51.328;7.322;2023-05-09T00:11:50;73853.97;;;-147.06;57.27
21594;BME280;10959;51.328;7.322;2023-05-09T00:14:16;73864.19;;;-147.06;57.25
21594;BME280;10959;51.328;7.322;2023-05-09T00:16:44;73851.91;;;-147.06;57.17
21594;BME280;10959;51.328;7.322;2023-05-09T00:19:11;73856.00;;;-147.06;57.14
21594;BME280;10959;51.328;7.322;2023-05-09T00:21:38;73851.91;;;-147.06;57.12
21594;BME280;10959;51.328;7.322;2023-05-09T00:24:05;73851.91;;;-147.06;57.14
21594;BME280;10959;51.328;7.322;2023-05-09T00:26:32;73856.00;;;-147.06;57.12
21594;BME280;10959;51.328;7.322;2023-05-09T00:28:58;73851.91;;;-147.06;57.16
21594;BME280;10959;51.328;7.322;2023-05-09T00:31:24;73864.19;;;-147.06;57.12
21594;BME280;10959;51.328;7.322;2023-05-09T00:33:53;73868.31;;;-147.06;57.05
21594;BME280;10959;51.328;7.322;2023-05-09T00:36:20;73868.31;;;-147.06;57.17
21594;BME280;10959;51.328;7.322;2023-05-09T00:38:46;73856.00;;;-147.06;57.01
21594;BME280;10959;51.328;7.322;2023-05-09T00:41:13;73847.81;;;-147.06;56.97
21594;BME280;10959;51.328;7.322;2023-05-09T00:43:39;73851.91;;;-147.06;56.84
21594;BME280;10959;51.328;7.322;2023-05-09T00:46:06;73849.88;;;-147.06;57.05
21594;BME280;10959;51.328;7.322;2023-05-09T00:48:32;73856.00;;;-147.06;56.99
21594;BME280;10959;51.328;7.322;2023-05-09T00:51:00;73862.16;;;-147.06;56.92
21594;BME280;10959;51.328;7.322;2023-05-09T00:53:27;73851.91;;;-147.06;57.08
21594;BME280;10959;51.328;7.322;2023-05-09T00:55:54;73851.91;;;-147.06;57.16
21594;BME280;10959;51.328;7.322;2023-05-09T00:58:22;73849.88;;;-147.06;57.07
21594;BME280;10959;51.328;7.322;2023-05-09T01:00:49;73847.81;;;-147.06;57.21
21594;BME280;10959;51.328;7.322;2023-05-09T01:03:15;73856.00;;;-147.06;57.33
21594;BME280;10959;51.328;7.322;2023-05-09T01:05:50;73868.31;;;-147.06;57.36
21594;BME280;10959;51.328;7.322;2023-05-09T01:08:30;73866.25;;;-147.06;57.43
21594;BME280;10959;51.328;7.322;2023-05-09T01:11:02;73843.72;;;-147.06;57.60
21594;BME280;10959;51.328;7.322;2023-05-09T01:13:37;73856.00;;;-147.06;57.60
21594;BME280;10959;51.328;7.322;2023-05-09T01:16:08;73847.81;;;-147.06;57.72
21594;BME280;10959;51.328;7.322;2023-05-09T01:18:42;73851.91;;;-147.06;57.85
21594;BME280;10959;51.328;7.322;2023-05-09T01:21:15;73851.91;;;-147.06;57.80
21594;BME280;10959;51.328;7.322;2023-05-09T01:23:59;73872.41;;;-147.06;57.93
21594;BME280;10959;51.328;7.322;2023-05-09T01:26:42;73856.00;;;-147.06;57.70
21594;BME280;10959;51.328;7.322;2023-05-09T01:29:35;73880.59;;;-147.06;58.11
21594;BME280;10959;51.328;7.322;2023-05-09T01:32:15;73851.91;;;-147.06;57.98
21594;BME280;10959;51.328;7.322;2023-05-09T01:34:44;73849.88;;;-147.06;57.98
21594;BME280;10959;51.328;7.322;2023-05-09T01:37:13;73847.81;;;-147.06;57.83
21594;BME280;10959;51.328;7.322;2023-05-09T01:39:45;73856.00;;;-147.06;58.12
21594;BME280;10959;51.328;7.322;2023-05-09T01:42:14;73839.63;;;-147.06;57.79
21594;BME280;10959;51.328;7.322;2023-05-09T01:44:43;73847.81;;;-147.06;58.05
21594;BME280;10959;51.328;7.322;2023-05-09T01:47:12;73851.91;;;-147.06;58.11
21594;BME280;10959;51.328;7.322;2023-05-09T01:49:41;73843.72;;;-147.06;58.11
21594;BME280;10959;51.328;7.322;2023-05-09T01:52:10;73860.09;;;-147.06;58.38
21594;BME280;10959;51.328;7.322;2023-05-09T01:54:39;73851.91;;;-147.06;58.36
21594;BME280;10959;51.328;7.322;2023-05-09T01:57:06;73856.00;;;-147.06;58.29
21594;BME280;10959;51.328;7.322;2023-05-09T01:59:33;73851.91;;;-147.06;58.18
21594;BME280;10959;51.328;7.322;2023-05-09T02:02:03;73856.00;;;-147.06;58.15
21594;BME280;10959;51.328;7.322;2023-05-09T02:04:30;73847.81;;;-147.06;57.95
21594;BME280;10959;51.328;7.322;2023-05-09T02:06:58;73843.72;;;-147.06;57.99
21594;BME280;10959;51.328;7.322;2023-05-09T02:09:26;73839.63;;;-147.06;57.99
21594;BME280;10959;51.328;7.322;2023-05-09T02:11:52;73839.63;;;-147.06;58.11
21594;BME280;10959;51.328;7.322;2023-05-09T02:14:19;73839.63;;;-147.06;58.37
21594;BME280;10959;51.328;7.322;2023-05-09T02:16:45;73841.66;;;-147.06;58.59
21594;BME280;10959;51.328;7.322;2023-05-09T02:19:13;73847.81;;;-147.06;58.65
21594;BME280;10959;51.328;7.322;2023-05-09T02:21:41;73843.72;;;-147.06;58.90
21594;BME280;10959;51.328;7.322;2023-05-09T02:24:07;73845.78;;;-147.06;58.91
21594;BME280;10959;51.328;7.322;2023-05-09T02:26:34;73833.47;;;-147.06;58.83
21594;BME280;10959;51.328;7.322;2023-05-09T02:29:01;73835.53;;;-147.06;58.78
21594;BME280;10959;51.328;7.322;2023-05-09T02:31:29;73839.63;;;-147.06;58.91
21594;BME280;10959;51.328;7.322;2023-05-09T02:33:56;73835.53;;;-147.06;58.95
21594;BME280;10959;51.328;7.322;2023-05-09T02:36:24;73839.63;;;-147.06;58.60
21594;BME280;10959;51.328;7.322;2023-05-09T02:38:52;73837.56;;;-147.06;59.02
21594;BME280;10959;51.328;7.322;2023-05-09T02:41:18;73843.72;;;-147.06;59.03
21594;BME280;10959;51.328;7.322;2023-05-09T02:43:46;73843.72;;;-147.06;58.89
21594;BME280;10959;51.328;7.322;2023-05-09T02:46:12;73839.63;;;-147.06;58.96
21594;BME280;10959;51.328;7.322;2023-05-09T02:48:38;73839.63;;;-147.06;58.99
21594;BME280;10959;51.328;7.322;2023-05-09T02:51:05;73843.72;;;-147.06;59.08
21594;BME280;10959;51.328;7.322;2023-05-09T02:53:33;73843.72;;;-147.06;59.08
21594;BME280;10959;51.328;7.322;2023-05-09T02:55:59;73839.63;;;-147.06;59.13
21594;BME280;10959;51.328;7.322;2023-05-09T02:58:26;73843.72;;;-147.06;59.21
21594;BME280;10959;51.328;7.322;2023-05-09T03:00:52;73841.66;;;-147.06;59.33
21594;BME280;10959;51.328;7.322;2023-05-09T03:03:19;73839.63;;;-147.06;59.45
21594;BME280;10959;51.328;7.322;2023-05-09T03:05:46;73835.53;;;-147.06;59.42
21594;BME280;10959;51.328;7.322;2023-05-09T03:08:12;73839.63;;;-147.06;59.75
21594;BME280;10959;51.328;7.322;2023-05-09T03:10:40;73839.63;;;-147.06;59.77
21594;BME280;10959;51.328;7.322;2023-05-09T03:13:07;73835.53;;;-147.06;59.76
21594;BME280;10959;51.328;7.322;2023-05-09T03:15:34;73835.53;;;-147.06;59.78
21594;BME280;10959;51.328;7.322;2023-05-09T03:18:00;73839.63;;;-147.06;60.26
21594;BME280;10959;51.328;7.322;2023-05-09T03:20:27;73827.34;;;-147.06;60.18
21594;BME280;10959;51.328;7.322;2023-05-09T03:22:53;73827.34;;;-147.06;60.29
21594;BME280;10959;51.328;7.322;2023-05-09T03:25:20;73825.28;;;-147.06;60.12
21594;BME280;10959;51.328;7.322;2023-05-09T03:27:48;73823.22;;;-147.06;60.06
21594;BME280;10959;51.328;7.322;2023-05-09T03:30:14;73815.03;;;-147.06;60.22
21594;BME280;10959;51.328;7.322;2023-05-09T03:32:41;73823.22;;;-147.06;60.47
21594;BME280;10959;51.328;7.322;2023-05-09T03:35:07;73823.22;;;-147.06;60.30
21594;BME280;10959;51.328;7.322;2023-05-09T03:37:34;73819.13;;;-147.06;60.25
21594;BME280;10959;51.328;7.322;2023-05-09T03:40:00;73806.84;;;-147.06;60.20
21594;BME280;10959;51.328;7.322;2023-05-09T03:42:28;73802.75;;;-147.06;60.10
21594;BME280;10959;51.328;7.322;2023-05-09T03:44:56;73813.00;;;-147.06;59.93
21594;BME280;10959;51.328;7.322;2023-05-09T03:47:23;73806.84;;;-147.06;60.11
21594;BME280;10959;51.328;7.322;2023-05-09T03:49:49;73804.78;;;-147.06;59.97
21594;BME280;10959;51.328;7.322;2023-05-09T03:52:17;73794.56;;;-147.06;60.13
21594;BME280;10959;51.328;7.322;2023-05-09T03:54:44;73802.75;;;-147.06;59.96
21594;BME280;10959;51.328;7.322;2023-05-09T03:57:10;73794.56;;;-147.06;60.03
21594;BME280;10959;51.328;7.322;2023-05-09T03:59:37;73804.78;;;-147.06;60.10
21594;BME280;10959;51.328;7.322;2023-05-09T04:02:04;73794.56;;;-147.06;60.20
21594;BME280;10959;51.328;7.322;2023-05-09T04:04:31;73794.56;;;-147.06;60.22
21594;BME280;10959;51.328;7.322;2023-05-09T04:06:57;73792.50;;;-147.06;60.25
21594;BME280;10959;51.328;7.322;2023-05-09T04:09:24;73790.47;;;-147.06;60.11
21594;BME280;10959;51.328;7.322;2023-05-09T04:11:51;73786.38;;;-147.06;60.13
21594;BME280;10959;51.328;7.322;2023-05-09T04:14:17;73782.25;;;-147.06;60.16
21594;BME280;10959;51.328;7.322;2023-05-09T04:16:44;73774.06;;;-147.06;60.02
21594;BME280;10959;51.328;7.322;2023-05-09T04:19:12;73769.97;;;-147.06;60.08
21594;BME280;10959;51.328;7.322;2023-05-09T04:21:38;73774.06;;;-147.06;60.15
21594;BME280;10959;51.328;7.322;2023-05-09T04:24:05;73774.06;;;-147.06;60.12
21594;BME280;10959;51.328;7.322;2023-05-09T04:26:32;73765.88;;;-147.06;60.30
21594;BME280;10959;51.328;7.322;2023-05-09T04:29:02;73769.97;;;-147.06;60.30
21594;BME280;10959;51.328;7.322;2023-05-09T04:31:28;73769.97;;;-147.06;60.27
21594;BME280;10959;51.328;7.322;2023-05-09T04:33:55;73769.97;;;-147.06;60.26
21594;BME280;10959;51.328;7.322;2023-05-09T04:36:23;73769.97;;;-147.06;60.23
21594;BME280;10959;51.328;7.322;2023-05-09T04:38:51;73765.88;;;-147.06;60.34
21594;BME280;10959;51.328;7.322;2023-05-09T04:41:18;73757.69;;;-147.06;60.37
21594;BME280;10959;51.328;7.322;2023-05-09T04:43:45;73755.63;;;-147.06;60.42
21594;BME280;10959;51.328;7.322;2023-05-09T04:46:12;73757.69;;;-147.06;60.40
21594;BME280;10959;51.328;7.322;2023-05-09T04:48:38;73753.59;;;-147.06;60.31
21594;BME280;10959;51.328;7.322;2023-05-09T04:51:05;73749.50;;;-147.06;60.42
21594;BME280;10959;51.328;7.322;2023-05-09T04:53:33;73749.50;;;-147.06;60.26
21594;BME280;10959;51.328;7.322;2023-05-09T04:55:59;73745.41;;;-147.06;60.24
21594;BME280;10959;51.328;7.322;2023-05-09T04:58:26;73737.19;;;-147.06;60.32
21594;BME280;10959;51.328;7.322;2023-05-09T05:00:53;73733.09;;;-147.06;60.30
21594;BME280;10959;51.328;7.322;2023-05-09T05:03:19;73729.00;;;-147.06;60.34
21594;BME280;10959;51.328;7.322;2023-05-09T05:05:45;73729.00;;;-147.06;60.23
21594;BME280;10959;51.328;7.322;2023-05-09T05:08:12;73729.00;;;-147.06;60.61
21594;BME280;10959;51.328;7.322;2023-05-09T05:10:39;73724.91;;;-147.06;60.33
21594;BME280;10959;51.328;7.322;2023-05-09T05:13:06;73722.84;;;-147.06;60.41
21594;BME280;10959;51.328;7.322;2023-05-09T05:15:32;73718.75;;;-147.06;60.38
21594;BME280;10959;51.328;7.322;2023-05-09T05:17:59;73712.63;;;-147.06;60.38
21594;BME280;10959;51.328;7.322;2023-05-09T05:20:25;73708.53;;;-147.06;60.33
21594;BME280;10959;51.328;7.322;2023-05-09T05:22:52;73696.22;;;-147.06;60.08
21594;BME280;10959;51.328;7.322;2023-05-09T05:25:19;73704.44;;;-147.06;60.08
21594;BME280;10959;51.328;7.322;2023-05-09T05:27:47;73696.22;;;-147.06;60.08
21594;BME280;10959;51.328;7.322;2023-05-09T05:30:14;73694.19;;;-147.06;60.06
21594;BME280;10959;51.328;7.322;2023-05-09T05:32:40;73698.28;;;-147.06;59.99
21594;BME280;10959;51.328;7.322;2023-05-09T05:35:08;73696.22;;;-147.06;60.03
21594;BME280;10959;51.328;7.322;2023-05-09T05:37:35;73696.22;;;-147.06;59.99
21594;BME280;10959;51.328;7.322;2023-05-09T05:40:02;73696.22;;;-147.06;59.99
21594;BME280;10959;51.328;7.322;2023-05-09T05:42:29;73696.22;;;-147.06;60.13
21594;BME280;10959;51.328;7.322;2023-05-09T05:44:57;73688.03;;;-147.06;59.94
21594;BME280;10959;51.328;7.322;2023-05-09T05:47:28;73679.84;;;-147.06;59.97
21594;BME280;10959;51.328;7.322;2023-05-09T05:49:56;73675.75;;;-147.06;59.87
21594;BME280;10959;51.328;7.322;2023-05-09T05:52:22;73663.47;;;-147.06;59.83
21594;BME280;10959;51.328;7.322;2023-05-09T05:54:49;73663.47;;;-147.06;59.57
21594;BME280;10959;51.328;7.322;2023-05-09T05:57:15;73659.34;;;-147.06;59.86
21594;BME280;10959;51.328;7.322;2023-05-09T05:59:41;73659.34;;;-147.06;59.58
21594;BME280;10959;51.328;7.322;2023-05-09T06:02:09;73651.16;;;-147.06;59.62
21594;BME280;10959;51.328;7.322;2023-05-09T06:04:36;73651.16;;;-147.06;59.76
21594;BME280;10959;51.328;7.322;2023-05-09T06:07:02;73640.94;;;-147.06;59.56
21594;BME280;10959;51.328;7.322;2023-05-09T06:09:29;73634.78;;;-147.06;59.76
21594;BME280;10959;51.328;7.322;2023-05-09T06:11:55;73630.69;;;-147.06;59.66
21594;BME280;10959;51.328;7.322;2023-05-09T06:14:21;73632.72;;;-147.06;59.76
21594;BME280;10959;51.328;7.322;2023-05-09T06:16:48;73626.59;;;-147.06;59.82
21594;BME280;10959;51.328;7.322;2023-05-09T06:19:16;73616.34;;;-147.06;59.57
21594;BME280;10959;51.328;7.322;2023-05-09T06:21:42;73618.41;;;-147.06;59.84
21594;BME280;10959;51.328;7.322;2023-05-09T06:24:09;73614.28;;;-147.06;59.90
21594;BME280;10959;51.328;7.322;2023-05-09T06:26:36;73610.19;;;-147.06;60.07
21594;BME280;10959;51.328;7.322;2023-05-09T06:29:02;73593.81;;;-147.06;60.15
21594;BME280;10959;51.328;7.322;2023-05-09T06:31:30;73585.63;;;-147.06;60.06
21594;BME280;10959;51.328;7.322;2023-05-09T06:33:57;73579.47;;;-147.06;60.18
21594;BME280;10959;51.328;7.322;2023-05-09T06:36:25;73577.44;;;-147.06;60.07
21594;BME280;10959;51.328;7.322;2023-05-09T06:38:51;73583.56;;;-147.06;60.36
21594;BME280;10959;51.328;7.322;2023-05-09T06:41:17;73577.44;;;-147.06;60.26
21594;BME280;10959;51.328;7.322;2023-05-09T06:43:45;73573.31;;;-147.06;60.31
21594;BME280;10959;51.328;7.322;2023-05-09T06:46:12;73556.94;;;-147.06;60.17
21594;BME280;10959;51.328;7.322;2023-05-09T06:48:38;73540.56;;;-147.06;60.06
21594;BME280;10959;51.328;7.322;2023-05-09T06:51:05;73540.56;;;-147.06;59.94
21594;BME280;10959;51.328;7.322;2023-05-09T06:53:33;73526.22;;;-147.06;59.78
21594;BME280;10959;51.328;7.322;2023-05-09T06:56:00;73505.72;;;-147.06;59.47
21594;BME280;10959;51.328;7.322;2023-05-09T06:58:27;73499.59;;;-147.06;59.57
21594;BME280;10959;51.328;7.322;2023-05-09T07:00:53;73495.50;;;-147.06;59.71
21594;BME280;10959;51.328;7.322;2023-05-09T07:03:20;73483.19;;;-147.06;59.47
21594;BME280;10959;51.328;7.322;2023-05-09T07:05:46;73468.88;;;-147.06;59.35
21594;BME280;10959;51.328;7.322;2023-05-09T07:08:13;73458.63;;;-147.06;58.87
21594;BME280;10959;51.328;7.322;2023-05-09T07:10:41;73458.63;;;-147.06;58.96
21594;BME280;10959;51.328;7.322;2023-05-09T07:13:07;73456.56;;;-147.06;59.05
21594;BME280;10959;51.328;7.322;2023-05-09T07:15:34;73442.25;;;-147.06;58.81
21594;BME280;10959;51.328;7.322;2023-05-09T07:18:00;73442.25;;;-147.06;58.66
21594;BME280;10959;51.328;7.322;2023-05-09T07:20:26;73434.03;;;-147.06;58.50
21594;BME280;10959;51.328;7.322;2023-05-09T07:22:53;73429.94;;;-147.06;58.57
21594;BME280;10959;51.328;7.322;2023-05-09T07:25:19;73417.66;;;-147.06;58.59
21594;BME280;10959;51.328;7.322;2023-05-09T07:27:47;73413.56;;;-147.06;58.22
21594;BME280;10959;51.328;7.322;2023-05-09T07:30:14;73413.56;;;-147.06;58.31
21594;BME280;10959;51.328;7.322;2023-05-09T07:32:40;73405.38;;;-147.06;58.38
21594;BME280;10959;51.328;7.322;2023-05-09T07:35:07;73405.38;;;-147.06;58.25
21594;BME280;10959;51.328;7.322;2023-05-09T07:37:33;73388.97;;;-147.06;58.24
21594;BME280;10959;51.328;7.322;2023-05-09T07:40:00;73382.84;;;-147.06;57.88
21594;BME280;10959;51.328;7.322;2023-05-09T07:42:27;73380.78;;;-147.06;57.69
21594;BME280;10959;51.328;7.322;2023-05-09T07:44:55;73356.22;;;-147.06;57.60
21594;BME280;10959;51.328;7.322;2023-05-09T07:47:23;73323.44;;;-147.06;57.47
21594;BME280;10959;51.328;7.322;2023-05-09T07:49:50;73298.84;;;-147.06;56.98
21594;BME280;10959;51.328;7.322;2023-05-09T07:52:16;73257.91;;;-147.06;56.43
21594;BME280;10959;51.328;7.322;2023-05-09T07:54:43;73245.59;;;-147.06;56.29
21594;BME280;10959;51.328;7.322;2023-05-09T07:57:10;73237.41;;;-147.06;55.92
21594;BME280;10959;51.328;7.322;2023-05-09T07:59:36;73231.28;;;-147.06;55.79
21594;BME280;10959;51.328;7.322;2023-05-09T08:02:05;73208.75;;;-147.06;55.63
21594;BME280;10959;51.328;7.322;2023-05-09T08:04:31;73200.53;;;-147.06;55.40
21594;BME280;10959;51.328;7.322;2023-05-09T08:06:58;73188.25;;;-147.06;55.19
21594;BME280;10959;51.328;7.322;2023-05-09T08:09:28;73184.16;;;-147.06;54.54
21594;BME280;10959;51.328;7.322;2023-05-09T08:11:54;73192.34;;;-147.06;54.59
21594;BME280;10959;51.328;7.322;2023-05-09T08:14:21;73184.16;;;-147.06;54.07
21594;BME280;10959;51.328;7.322;2023-05-09T08:16:47;73180.06;;;-147.06;54.28
21594;BME280;10959;51.328;7.322;2023-05-09T08:19:15;73173.91;;;-147.06;53.88
21594;BME280;10959;51.328;7.322;2023-05-09T08:21:42;73167.78;;;-147.06;53.49
21594;BME280;10959;51.328;7.322;2023-05-09T08:24:08;73149.34;;;-147.06;53.69
21594;BME280;10959;51.328;7.322;2023-05-09T08:26:35;73155.50;;;-147.06;53.34
21594;BME280;10959;51.328;7.322;2023-05-09T08:29:01;73147.28;;;-147.06;53.35
21594;BME280;10959;51.328;7.322;2023-05-09T08:31:28;73159.59;;;-147.06;53.15
21594;BME280;10959;51.328;7.322;2023-05-09T08:33:54;73163.69;;;-147.06;53.02
21594;BME280;10959;51.328;7.322;2023-05-09T08:36:22;73163.69;;;-147.06;52.89
21594;BME280;10959;51.328;7.322;2023-05-09T08:38:49;73167.78;;;-147.06;52.94
21594;BME280;10959;51.328;7.322;2023-05-09T08:41:15;73145.25;;;-147.06;53.18
21594;BME280;10959;51.328;7.322;2023-05-09T08:43:42;73081.75;;;-147.06;53.03
21594;BME280;10959;51.328;7.322;2023-05-09T08:46:10;73044.88;;;-147.06;53.00
21594;BME280;10959;51.328;7.322;2023-05-09T08:48:37;73024.41;;;-147.06;51.64
21594;BME280;10959;51.328;7.322;2023-05-09T08:51:05;73008.03;;;-147.06;51.16
21594;BME280;10959;51.328;7.322;2023-05-09T08:53:33;72987.53;;;-147.06;49.72
21594;BME280;10959;51.328;7.322;2023-05-09T08:56:01;72981.41;;;-147.06;49.43
21594;BME280;10959;51.328;7.322;2023-05-09T08:58:29;72979.34;;;-147.06;49.87
21594;BME280;10959;51.328;7.322;2023-05-09T09:00:57;73012.13;;;-147.06;49.74
21594;BME280;10959;51.328;7.322;2023-05-09T09:03:24;73024.41;;;-147.06;49.97
21594;BME280;10959;51.328;7.322;2023-05-09T09:05:52;73022.34;;;-147.06;50.02
21594;BME280;10959;51.328;7.322;2023-05-09T09:08:19;73016.22;;;-147.06;49.74
21594;BME280;10959;51.328;7.322;2023-05-09T09:10:48;73003.94;;;-147.06;50.14
21594;BME280;10959;51.328;7.322;2023-05-09T09:13:16;72991.63;;;-147.06;49.76
21594;BME280;10959;51.328;7.322;2023-05-09T09:15:45;72979.34;;;-147.06;49.50
21594;BME280;10959;51.328;7.322;2023-05-09T09:18:15;72946.59;;;-147.06;48.85
21594;BME280;10959;51.328;7.322;2023-05-09T09:20:45;72907.66;;;-147.06;47.97
21594;BME280;10959;51.328;7.322;2023-05-09T09:23:17;72885.16;;;-147.06;48.22
21594;BME280;10959;51.328;7.322;2023-05-09T09:25:44;72860.56;;;-147.06;48.20
21594;BME280;10959;51.328;7.322;2023-05-09T09:28:12;72856.47;;;-147.06;48.18
21594;BME280;10959;51.328;7.322;2023-05-09T09:30:42;72840.09;;;-147.06;47.68
21594;BME280;10959;51.328;7.322;2023-05-09T09:33:17;72821.66;;;-147.06;47.38
21594;BME280;10959;51.328;7.322;2023-05-09T09:35:44;72788.88;;;-147.06;46.89
21594;BME280;10959;51.328;7.322;2023-05-09T09:38:11;72754.06;;;-147.06;47.09
21594;BME280;10959;51.328;7.322;2023-05-09T09:40:37;72721.31;;;-147.06;47.05
21594;BME280;10959;51.328;7.322;2023-05-09T09:43:05;72700.81;;;-147.06;45.80
21594;BME280;10959;51.328;7.322;2023-05-09T09:45:33;72676.25;;;-147.06;45.71
21594;BME280;10959;51.328;7.322;2023-05-09T09:48:04;72700.81;;;-147.06;44.29
21594;BME280;10959;51.328;7.322;2023-05-09T09:50:31;72704.91;;;-147.06;45.26
21594;BME280;10959;51.328;7.322;2023-05-09T09:52:58;72733.59;;;-147.06;44.67
21594;BME280;10959;51.328;7.322;2023-05-09T09:55:25;72758.16;;;-147.06;44.94
21594;BME280;10959;51.328;7.322;2023-05-09T09:57:51;72743.84;;;-147.06;44.67
21594;BME280;10959;51.328;7.322;2023-05-09T10:00:23;72747.94;;;-147.06;45.27
21594;BME280;10959;51.328;7.322;2023-05-09T10:02:54;72727.44;;;-147.06;45.15
21594;BME280;10959;51.328;7.322;2023-05-09T10:05:22;72696.72;;;-147.06;45.09
21594;BME280;10959;51.328;7.322;2023-05-09T10:07:50;72670.09;;;-147.06;45.05
21594;BME280;10959;51.328;7.322;2023-05-09T10:10:19;72647.56;;;-147.06;44.32
21594;BME280;10959;51.328;7.322;2023-05-09T10:12:46;72625.06;;;-147.06;43.26
21594;BME280;10959;51.328;7.322;2023-05-09T10:15:15;72618.91;;;-147.06;43.45
21594;BME280;10959;51.328;7.322;2023-05-09T10:17:43;72612.78;;;-147.06;42.69
21594;BME280;10959;51.328;7.322;2023-05-09T10:20:11;72598.44;;;-147.06;43.35
21594;BME280;10959;51.328;7.322;2023-05-09T10:22:38;72594.34;;;-147.06;43.31
21594;BME280;10959;51.328;7.322;2023-05-09T10:25:09;72565.66;;;-147.06;43.33
21594;BME280;10959;51.328;7.322;2023-05-09T10:27:37;72565.66;;;-147.06;43.25
21594;BME280;10959;51.328;7.322;2023-05-09T10:30:08;72561.56;;;-147.06;42.90
21594;BME280;10959;51.328;7.322;2023-05-09T10:32:40;72553.38;;;-147.06;42.67
21594;BME280;10959;51.328;7.322;2023-05-09T10:35:10;72537.00;;;-147.06;41.36
21594;BME280;10959;51.328;7.322;2023-05-09T10:37:41;72559.53;;;-147.06;40.82
21594;BME280;10959;51.328;7.322;2023-05-09T10:40:10;72549.28;;;-147.06;42.09
21594;BME280;10959;51.328;7.322;2023-05-09T10:42:39;72563.63;;;-147.06;41.51
21594;BME280;10959;51.328;7.322;2023-05-09T10:45:07;72594.34;;;-147.06;41.60
21594;BME280;10959;51.328;7.322;2023-05-09T10:47:35;72602.53;;;-147.06;41.45
21594;BME280;10959;51.328;7.322;2023-05-09T10:50:03;72602.53;;;-147.06;41.94
21594;BME280;10959;51.328;7.322;2023-05-09T10:52:32;72586.16;;;-147.06;41.94
21594;BME280;10959;51.328;7.322;2023-05-09T10:54:59;72580.00;;;-147.06;41.19
21594;BME280;10959;51.328;7.322;2023-05-09T10:57:27;72563.63;;;-147.06;42.11
21594;BME280;10959;51.328;7.322;2023-05-09T10:59:54;72541.09;;;-147.06;42.28
21594;BME280;10959;51.328;7.322;2023-05-09T11:02:22;72537.00;;;-147.06;42.07
21594;BME280;10959;51.328;7.322;2023-05-09T11:05:11;72561.56;;;-147.06;42.43
21594;BME280;10959;51.328;7.322;2023-05-09T11:07:39;72520.63;;;-147.06;42.48
21594;BME280;10959;51.328;7.322;2023-05-09T11:10:08;72483.75;;;-147.06;41.85
21594;BME280;10959;51.328;7.322;2023-05-09T11:12:51;72467.38;;;-147.06;41.33
21594;BME280;10959;51.328;7.322;2023-05-09T11:15:18;72430.50;;;-147.06;40.66
21594;BME280;10959;51.328;7.322;2023-05-09T11:17:50;72442.78;;;-147.06;40.40
21594;BME280;10959;51.328;7.322;2023-05-09T11:20:17;72463.28;;;-147.06;40.73
21594;BME280;10959;51.328;7.322;2023-05-09T11:22:44;72461.22;;;-147.06;40.81
21594;BME280;10959;51.328;7.322;2023-05-09T11:25:12;72481.72;;;-147.06;40.15
21594;BME280;10959;51.328;7.322;2023-05-09T11:27:41;72483.75;;;-147.06;41.49
21594;BME280;10959;51.328;7.322;2023-05-09T11:30:10;72479.66;;;-147.06;41.35
21594;BME280;10959;51.328;7.322;2023-05-09T11:32:44;72520.63;;;-147.06;40.23
21594;BME280;10959;51.328;7.322;2023-05-09T11:35:12;72504.22;;;-147.06;40.94
21594;BME280;10959;51.328;7.322;2023-05-09T11:37:59;72524.72;;;-147.06;40.49
21594;BME280;10959;51.328;7.322;2023-05-09T11:40:27;72487.84;;;-147.06;40.88
21594;BME280;10959;51.328;7.322;2023-05-09T11:42:55;72471.47;;;-147.06;40.57
21594;BME280;10959;51.328;7.322;2023-05-09T11:45:23;72487.84;;;-147.06;40.42
21594;BME280;10959;51.328;7.322;2023-05-09T11:47:51;72483.75;;;-147.06;41.21
21594;BME280;10959;51.328;7.322;2023-05-09T11:50:18;72483.75;;;-147.06;40.77
21594;BME280;10959;51.328;7.322;2023-05-09T11:52:46;72491.94;;;-147.06;40.96
21594;BME280;10959;51.328;7.322;2023-05-09T11:55:16;72487.84;;;-147.06;40.53
21594;BME280;10959;51.328;7.322;2023-05-09T11:57:45;72496.03;;;-147.06;40.92
21594;BME280;10959;51.328;7.322;2023-05-09T12:00:14;72504.22;;;-147.06;40.08
21594;BME280;10959;51.328;7.322;2023-05-09T12:02:42;72506.28;;;-147.06;40.82
21594;BME280;10959;51.328;7.322;2023-05-09T12:05:10;72516.53;;;-147.06;41.08
21594;BME280;10959;51.328;7.322;2023-05-09T12:07:37;72508.31;;;-147.06;41.23
21594;BME280;10959;51.328;7.322;2023-05-09T12:10:05;72496.03;;;-147.06;41.29
21594;BME280;10959;51.328;7.322;2023-05-09T12:12:34;72487.84;;;-147.06;41.04
21594;BME280;10959;51.328;7.322;2023-05-09T12:15:02;72471.47;;;-147.06;41.64
21594;BME280;10959;51.328;7.322;2023-05-09T12:17:29;72455.09;;;-147.06;41.66
21594;BME280;10959;51.328;7.322;2023-05-09T12:19:57;72430.50;;;-147.06;41.75
21594;BME280;10959;51.328;7.322;2023-05-09T12:22:23;72422.31;;;-147.06;41.39
21594;BME280;10959;51.328;7.322;2023-05-09T12:24:50;72410.03;;;-147.06;41.01
21594;BME280;10959;51.328;7.322;2023-05-09T12:27:16;72410.03;;;-147.06;41.38
21594;BME280;10959;51.328;7.322;2023-05-09T12:29:45;72401.84;;;-147.06;41.94
21594;BME280;10959;51.328;7.322;2023-05-09T12:32:13;72395.69;;;-147.06;42.12
21594;BME280;10959;51.328;7.322;2023-05-09T12:34:40;72401.84;;;-147.06;42.22
21594;BME280;10959;51.328;7.322;2023-05-09T12:37:13;72397.75;;;-147.06;42.20
21594;BME280;10959;51.328;7.322;2023-05-09T12:39:41;72393.66;;;-147.06;42.10
21594;BME280;10959;51.328;7.322;2023-05-09T12:42:11;72393.66;;;-147.06;41.68
21594;BME280;10959;51.328;7.322;2023-05-09T12:44:37;72369.06;;;-147.06;42.25